sensor_id;sensor_type;location;lat;lon;timestamp;P1;durP1;ratioP1;P2;durP2;ratioP2
56429;SDS011;42332;52.136;20.666;2023-07-22T00:02:22;8.68;;;5.22;;
56429;SDS011;42332;52.136;20.666;2023-07-22T00:04:48;9.25;;;5.38;;
56429;SDS011;42332;52.136;20.666;2023-07-22T00:07:13;8.50;;;5.15;;
56429;SDS011;42332;52.136;20.666;2023-07-22T00:09:39;9.93;;;5.25;;
56429;SDS011;42332;52.136;20.666;2023-07-22T00:12:06;12.88;;;5.68;;
56429;SDS011;42332;52.136;20.666;2023-07-22T00:14:32;10.80;;;5.47;;
56429;SDS011;42332;52.136;20.666;2023-07-22T00:16:57;10.20;;;5.60;;
56429;SDS011;42332;52.136;20.666;2023-07-22T00:19:22;8.57;;;5.38;;
56429;SDS011;42332;52.136;20.666;2023-07-22T00:21:48;10.57;;;5.72;;
56429;SDS011;42332;52.136;20.666;2023-07-22T00:24:14;9.65;;;6.18;;
56429;SDS011;42332;52.136;20.666;2023-07-22T00:26:39;10.55;;;6.47;;
56429;SDS011;42332;52.136;20.666;2023-07-22T00:29:05;12.85;;;5.93;;
56429;SDS011;42332;52.136;20.666;2023-07-22T00:31:30;12.77;;;5.88;;
56429;SDS011;42332;52.136;20.666;2023-07-22T00:33:56;10.57;;;7.18;;
56429;SDS011;42332;52.136;20.666;2023-07-22T00:36:21;14.90;;;6.70;;
56429;SDS011;42332;52.136;20.666;2023-07-22T00:38:46;11.15;;;6.85;;
56429;SDS011;42332;52.136;20.666;2023-07-22T00:41:12;12.80;;;6.68;;
56429;SDS011;42332;52.136;20.666;2023-07-22T00:43:37;10.65;;;6.70;;
56429;SDS011;42332;52.136;20.666;2023-07-22T00:46:03;13.70;;;7.00;;
56429;SDS011;42332;52.136;20.666;2023-07-22T00:48:29;12.27;;;7.10;;
56429;SDS011;42332;52.136;20.666;2023-07-22T00:50:54;17.35;;;8.10;;
56429;SDS011;42332;52.136;20.666;2023-07-22T00:53:20;13.45;;;7.55;;
56429;SDS011;42332;52.136;20.666;2023-07-22T00:55:45;12.80;;;7.80;;
56429;SDS011;42332;52.136;20.666;2023-07-22T00:58:11;12.75;;;7.78;;
56429;SDS011;42332;52.136;20.666;2023-07-22T01:00:36;14.63;;;7.80;;
56429;SDS011;42332;52.136;20.666;2023-07-22T01:03:02;10.60;;;7.43;;
56429;SDS011;42332;52.136;20.666;2023-07-22T01:05:27;13.15;;;8.15;;
56429;SDS011;42332;52.136;20.666;2023-07-22T01:07:53;12.82;;;8.23;;
56429;SDS011;42332;52.136;20.666;2023-07-22T01:10:18;13.00;;;8.27;;
56429;SDS011;42332;52.136;20.666;2023-07-22T01:12:44;12.43;;;7.18;;
56429;SDS011;42332;52.136;20.666;2023-07-22T01:15:10;16.73;;;8.57;;
56429;SDS011;42332;52.136;20.666;2023-07-22T01:17:38;14.68;;;7.82;;
56429;SDS011;42332;52.136;20.666;2023-07-22T01:20:04;14.52;;;8.55;;
56429;SDS011;42332;52.136;20.666;2023-07-22T01:22:31;10.30;;;7.63;;
56429;SDS011;42332;52.136;20.666;2023-07-22T01:24:57;17.00;;;9.05;;
56429;SDS011;42332;52.136;20.666;2023-07-22T01:27:23;12.80;;;7.90;;
56429;SDS011;42332;52.136;20.666;2023-07-22T01:29:52;12.98;;;8.32;;
56429;SDS011;42332;52.136;20.666;2023-07-22T01:32:18;13.80;;;8.65;;
56429;SDS011;42332;52.136;20.666;2023-07-22T01:34:45;14.65;;;8.27;;
56429;SDS011;42332;52.136;20.666;2023-07-22T01:37:10;15.20;;;8.13;;
56429;SDS011;42332;52.136;20.666;2023-07-22T01:39:35;16.15;;;9.77;;
56429;SDS011;42332;52.136;20.666;2023-07-22T01:42:01;12.13;;;8.30;;
56429;SDS011;42332;52.136;20.666;2023-07-22T01:44:27;15.30;;;8.63;;
56429;SDS011;42332;52.136;20.666;2023-07-22T01:46:52;12.52;;;7.57;;
56429;SDS011;42332;52.136;20.666;2023-07-22T01:49:17;12.38;;;8.10;;
56429;SDS011;42332;52.136;20.666;2023-07-22T01:51:43;14.65;;;8.05;;
56429;SDS011;42332;52.136;20.666;2023-07-22T01:54:08;12.80;;;7.75;;
56429;SDS011;42332;52.136;20.666;2023-07-22T01:56:35;13.85;;;8.20;;
56429;SDS011;42332;52.136;20.666;2023-07-22T01:59:01;15.07;;;8.10;;
56429;SDS011;42332;52.136;20.666;2023-07-22T02:01:26;13.32;;;7.60;;
56429;SDS011;42332;52.136;20.666;2023-07-22T02:03:53;11.10;;;7.18;;
56429;SDS011;42332;52.136;20.666;2023-07-22T02:06:18;11.68;;;7.55;;
56429;SDS011;42332;52.136;20.666;2023-07-22T02:08:44;17.90;;;7.47;;
56429;SDS011;42332;52.136;20.666;2023-07-22T02:11:10;13.60;;;7.20;;
56429;SDS011;42332;52.136;20.666;2023-07-22T02:13:36;13.95;;;7.35;;
56429;SDS011;42332;52.136;20.666;2023-07-22T02:16:01;14.00;;;7.90;;
56429;SDS011;42332;52.136;20.666;2023-07-22T02:18:28;12.27;;;7.15;;
56429;SDS011;42332;52.136;20.666;2023-07-22T02:20:54;11.63;;;7.20;;
56429;SDS011;42332;52.136;20.666;2023-07-22T02:23:20;15.02;;;7.38;;
56429;SDS011;42332;52.136;20.666;2023-07-22T02:25:51;9.80;;;6.32;;
56429;SDS011;42332;52.136;20.666;2023-07-22T02:28:17;11.57;;;7.53;;
56429;SDS011;42332;52.136;20.666;2023-07-22T02:30:50;14.98;;;8.05;;
56429;SDS011;42332;52.136;20.666;2023-07-22T02:33:17;13.02;;;6.47;;
56429;SDS011;42332;52.136;20.666;2023-07-22T02:35:43;12.60;;;7.50;;
56429;SDS011;42332;52.136;20.666;2023-07-22T02:38:08;12.20;;;7.07;;
56429;SDS011;42332;52.136;20.666;2023-07-22T02:40:34;12.05;;;7.60;;
56429;SDS011;42332;52.136;20.666;2023-07-22T02:43:00;10.48;;;6.75;;
56429;SDS011;42332;52.136;20.666;2023-07-22T02:45:25;12.70;;;7.72;;
56429;SDS011;42332;52.136;20.666;2023-07-22T02:47:50;13.10;;;7.75;;
56429;SDS011;42332;52.136;20.666;2023-07-22T02:50:16;18.33;;;7.93;;
56429;SDS011;42332;52.136;20.666;2023-07-22T02:52:41;13.27;;;7.65;;
56429;SDS011;42332;52.136;20.666;2023-07-22T02:55:08;12.20;;;7.50;;
56429;SDS011;42332;52.136;20.666;2023-07-22T02:57:38;14.77;;;7.70;;
56429;SDS011;42332;52.136;20.666;2023-07-22T03:00:04;11.13;;;7.53;;
56429;SDS011;42332;52.136;20.666;2023-07-22T03:02:34;12.73;;;8.13;;
56429;SDS011;42332;52.136;20.666;2023-07-22T03:05:00;15.75;;;8.43;;
56429;SDS011;42332;52.136;20.666;2023-07-22T03:07:25;12.60;;;7.43;;
56429;SDS011;42332;52.136;20.666;2023-07-22T03:09:53;15.57;;;8.30;;
56429;SDS011;42332;52.136;20.666;2023-07-22T03:12:19;11.40;;;7.43;;
56429;SDS011;42332;52.136;20.666;2023-07-22T03:14:44;12.82;;;8.07;;
56429;SDS011;42332;52.136;20.666;2023-07-22T03:17:10;13.02;;;7.93;;
56429;SDS011;42332;52.136;20.666;2023-07-22T03:19:37;12.45;;;7.75;;
56429;SDS011;42332;52.136;20.666;2023-07-22T03:22:02;12.18;;;8.15;;
56429;SDS011;42332;52.136;20.666;2023-07-22T03:24:28;12.35;;;7.70;;
56429;SDS011;42332;52.136;20.666;2023-07-22T03:26:54;11.45;;;7.65;;
56429;SDS011;42332;52.136;20.666;2023-07-22T03:29:19;13.25;;;9.00;;
56429;SDS011;42332;52.136;20.666;2023-07-22T03:31:45;12.73;;;7.88;;
56429;SDS011;42332;52.136;20.666;2023-07-22T03:34:10;11.05;;;7.43;;
56429;SDS011;42332;52.136;20.666;2023-07-22T03:36:35;15.70;;;8.13;;
56429;SDS011;42332;52.136;20.666;2023-07-22T03:39:01;15.43;;;9.07;;
56429;SDS011;42332;52.136;20.666;2023-07-22T03:41:26;11.07;;;7.43;;
56429;SDS011;42332;52.136;20.666;2023-07-22T03:43:51;17.50;;;8.32;;
56429;SDS011;42332;52.136;20.666;2023-07-22T03:46:17;11.77;;;7.88;;
56429;SDS011;42332;52.136;20.666;2023-07-22T03:48:42;10.88;;;7.45;;
56429;SDS011;42332;52.136;20.666;2023-07-22T03:51:07;15.38;;;6.90;;
56429;SDS011;42332;52.136;20.666;2023-07-22T03:53:33;14.32;;;8.30;;
56429;SDS011;42332;52.136;20.666;2023-07-22T03:55:58;11.25;;;7.25;;
56429;SDS011;42332;52.136;20.666;2023-07-22T03:58:23;13.52;;;7.38;;
56429;SDS011;42332;52.136;20.666;2023-07-22T04:00:49;11.63;;;6.97;;
56429;SDS011;42332;52.136;20.666;2023-07-22T04:03:15;8.82;;;5.63;;
56429;SDS011;42332;52.136;20.666;2023-07-22T04:05:40;14.68;;;7.38;;
56429;SDS011;42332;52.136;20.666;2023-07-22T04:08:06;17.73;;;6.82;;
56429;SDS011;42332;52.136;20.666;2023-07-22T04:10:31;14.20;;;6.68;;
56429;SDS011;42332;52.136;20.666;2023-07-22T04:12:56;13.05;;;6.95;;
56429;SDS011;42332;52.136;20.666;2023-07-22T04:15:22;16.65;;;6.78;;
56429;SDS011;42332;52.136;20.666;2023-07-22T04:17:47;14.98;;;7.57;;
56429;SDS011;42332;52.136;20.666;2023-07-22T04:20:13;10.65;;;6.40;;
56429;SDS011;42332;52.136;20.666;2023-07-22T04:22:38;11.70;;;6.68;;
56429;SDS011;42332;52.136;20.666;2023-07-22T04:25:04;12.60;;;7.20;;
56429;SDS011;42332;52.136;20.666;2023-07-22T04:27:29;11.85;;;7.47;;
56429;SDS011;42332;52.136;20.666;2023-07-22T04:29:55;10.35;;;7.05;;
56429;SDS011;42332;52.136;20.666;2023-07-22T04:32:21;18.38;;;7.80;;
56429;SDS011;42332;52.136;20.666;2023-07-22T04:34:46;12.10;;;7.20;;
56429;SDS011;42332;52.136;20.666;2023-07-22T04:37:11;16.25;;;7.20;;
56429;SDS011;42332;52.136;20.666;2023-07-22T04:39:37;12.65;;;6.78;;
56429;SDS011;42332;52.136;20.666;2023-07-22T04:42:03;12.48;;;6.97;;
56429;SDS011;42332;52.136;20.666;2023-07-22T04:44:28;14.73;;;7.10;;
56429;SDS011;42332;52.136;20.666;2023-07-22T04:46:54;11.23;;;6.93;;
56429;SDS011;42332;52.136;20.666;2023-07-22T04:49:19;10.88;;;6.57;;
56429;SDS011;42332;52.136;20.666;2023-07-22T04:51:47;18.20;;;7.40;;
56429;SDS011;42332;52.136;20.666;2023-07-22T04:54:13;12.02;;;7.43;;
56429;SDS011;42332;52.136;20.666;2023-07-22T04:56:38;12.95;;;6.82;;
56429;SDS011;42332;52.136;20.666;2023-07-22T04:59:04;13.23;;;7.22;;
56429;SDS011;42332;52.136;20.666;2023-07-22T05:01:29;11.60;;;7.07;;
56429;SDS011;42332;52.136;20.666;2023-07-22T05:03:55;14.95;;;7.50;;
56429;SDS011;42332;52.136;20.666;2023-07-22T05:06:20;10.80;;;6.30;;
56429;SDS011;42332;52.136;20.666;2023-07-22T05:08:46;12.48;;;7.18;;
56429;SDS011;42332;52.136;20.666;2023-07-22T05:11:11;15.38;;;7.57;;
56429;SDS011;42332;52.136;20.666;2023-07-22T05:13:37;13.15;;;7.63;;
56429;SDS011;42332;52.136;20.666;2023-07-22T05:16:02;12.93;;;7.38;;
56429;SDS011;42332;52.136;20.666;2023-07-22T05:18:28;12.18;;;6.25;;
56429;SDS011;42332;52.136;20.666;2023-07-22T05:20:53;13.13;;;6.25;;
56429;SDS011;42332;52.136;20.666;2023-07-22T05:23:18;14.70;;;6.80;;
56429;SDS011;42332;52.136;20.666;2023-07-22T05:25:44;14.15;;;6.38;;
56429;SDS011;42332;52.136;20.666;2023-07-22T05:28:09;12.30;;;6.13;;
56429;SDS011;42332;52.136;20.666;2023-07-22T05:30:34;11.45;;;6.05;;
56429;SDS011;42332;52.136;20.666;2023-07-22T05:33:00;10.95;;;5.30;;
56429;SDS011;42332;52.136;20.666;2023-07-22T05:35:25;11.05;;;6.20;;
56429;SDS011;42332;52.136;20.666;2023-07-22T05:37:50;14.52;;;6.50;;
56429;SDS011;42332;52.136;20.666;2023-07-22T05:40:16;10.55;;;6.13;;
56429;SDS011;42332;52.136;20.666;2023-07-22T05:42:41;11.10;;;6.03;;
56429;SDS011;42332;52.136;20.666;2023-07-22T05:45:06;12.18;;;5.72;;
56429;SDS011;42332;52.136;20.666;2023-07-22T05:47:32;18.38;;;6.05;;
56429;SDS011;42332;52.136;20.666;2023-07-22T05:49:57;11.55;;;6.28;;
56429;SDS011;42332;52.136;20.666;2023-07-22T05:52:23;10.05;;;5.50;;
56429;SDS011;42332;52.136;20.666;2023-07-22T05:54:48;11.52;;;5.80;;
56429;SDS011;42332;52.136;20.666;2023-07-22T05:57:14;11.05;;;5.72;;
56429;SDS011;42332;52.136;20.666;2023-07-22T05:59:40;9.65;;;5.40;;
56429;SDS011;42332;52.136;20.666;2023-07-22T06:02:06;9.95;;;5.70;;
56429;SDS011;42332;52.136;20.666;2023-07-22T06:04:32;10.32;;;4.88;;
56429;SDS011;42332;52.136;20.666;2023-07-22T06:06:58;9.85;;;4.32;;
56429;SDS011;42332;52.136;20.666;2023-07-22T06:09:23;9.02;;;4.60;;
56429;SDS011;42332;52.136;20.666;2023-07-22T06:11:49;8.00;;;4.20;;
56429;SDS011;42332;52.136;20.666;2023-07-22T06:14:14;6.90;;;3.17;;
56429;SDS011;42332;52.136;20.666;2023-07-22T06:16:39;9.57;;;4.40;;
56429;SDS011;42332;52.136;20.666;2023-07-22T06:19:05;8.38;;;3.65;;
56429;SDS011;42332;52.136;20.666;2023-07-22T06:21:30;7.57;;;3.40;;
56429;SDS011;42332;52.136;20.666;2023-07-22T06:23:55;7.50;;;3.47;;
56429;SDS011;42332;52.136;20.666;2023-07-22T06:26:21;5.50;;;2.97;;
56429;SDS011;42332;52.136;20.666;2023-07-22T06:28:46;6.65;;;3.10;;
56429;SDS011;42332;52.136;20.666;2023-07-22T06:31:12;8.27;;;2.80;;
56429;SDS011;42332;52.136;20.666;2023-07-22T06:33:37;7.93;;;2.97;;
56429;SDS011;42332;52.136;20.666;2023-07-22T06:36:03;8.02;;;3.05;;
56429;SDS011;42332;52.136;20.666;2023-07-22T06:38:28;5.35;;;2.85;;
56429;SDS011;42332;52.136;20.666;2023-07-22T06:40:54;5.72;;;2.97;;
56429;SDS011;42332;52.136;20.666;2023-07-22T06:43:19;4.60;;;2.30;;
56429;SDS011;42332;52.136;20.666;2023-07-22T06:45:44;5.35;;;2.40;;
56429;SDS011;42332;52.136;20.666;2023-07-22T06:48:10;5.75;;;2.60;;
56429;SDS011;42332;52.136;20.666;2023-07-22T06:50:35;6.18;;;2.70;;
56429;SDS011;42332;52.136;20.666;2023-07-22T06:53:00;5.35;;;2.50;;
56429;SDS011;42332;52.136;20.666;2023-07-22T06:55:26;7.43;;;3.22;;
56429;SDS011;42332;52.136;20.666;2023-07-22T06:57:51;8.07;;;2.58;;
56429;SDS011;42332;52.136;20.666;2023-07-22T07:00:16;5.47;;;2.35;;
56429;SDS011;42332;52.136;20.666;2023-07-22T07:02:42;9.07;;;2.55;;
56429;SDS011;42332;52.136;20.666;2023-07-22T07:05:07;6.93;;;2.80;;
56429;SDS011;42332;52.136;20.666;2023-07-22T07:07:32;6.10;;;2.90;;
56429;SDS011;42332;52.136;20.666;2023-07-22T07:09:58;6.28;;;2.50;;
56429;SDS011;42332;52.136;20.666;2023-07-22T07:12:23;6.30;;;2.60;;
56429;SDS011;42332;52.136;20.666;2023-07-22T07:14:52;6.28;;;2.33;;
56429;SDS011;42332;52.136;20.666;2023-07-22T07:17:18;5.85;;;2.50;;
56429;SDS011;42332;52.136;20.666;2023-07-22T07:19:43;6.65;;;2.40;;
56429;SDS011;42332;52.136;20.666;2023-07-22T07:22:09;5.20;;;2.20;;
56429;SDS011;42332;52.136;20.666;2023-07-22T07:24:34;5.32;;;2.20;;
56429;SDS011;42332;52.136;20.666;2023-07-22T07:26:59;6.65;;;2.20;;
56429;SDS011;42332;52.136;20.666;2023-07-22T07:29:24;4.70;;;2.08;;
56429;SDS011;42332;52.136;20.666;2023-07-22T07:31:50;8.05;;;2.10;;
56429;SDS011;42332;52.136;20.666;2023-07-22T07:34:15;5.07;;;1.77;;
56429;SDS011;42332;52.136;20.666;2023-07-22T07:36:40;3.72;;;1.67;;
56429;SDS011;42332;52.136;20.666;2023-07-22T07:39:06;6.43;;;1.80;;
56429;SDS011;42332;52.136;20.666;2023-07-22T07:41:32;3.53;;;1.85;;
56429;SDS011;42332;52.136;20.666;2023-07-22T07:43:58;4.43;;;2.13;;
56429;SDS011;42332;52.136;20.666;2023-07-22T07:46:27;5.28;;;2.08;;
56429;SDS011;42332;52.136;20.666;2023-07-22T07:48:54;5.60;;;2.30;;
56429;SDS011;42332;52.136;20.666;2023-07-22T07:51:21;5.15;;;2.20;;
56429;SDS011;42332;52.136;20.666;2023-07-22T07:53:47;4.47;;;2.08;;
56429;SDS011;42332;52.136;20.666;2023-07-22T07:56:12;4.85;;;1.95;;
56429;SDS011;42332;52.136;20.666;2023-07-22T07:58:38;7.60;;;1.92;;
56429;SDS011;42332;52.136;20.666;2023-07-22T08:01:04;6.70;;;2.30;;
56429;SDS011;42332;52.136;20.666;2023-07-22T08:03:30;10.10;;;2.10;;
56429;SDS011;42332;52.136;20.666;2023-07-22T08:05:56;13.93;;;2.15;;
56429;SDS011;42332;52.136;20.666;2023-07-22T08:08:21;4.72;;;1.73;;
56429;SDS011;42332;52.136;20.666;2023-07-22T08:10:46;5.85;;;2.00;;
56429;SDS011;42332;52.136;20.666;2023-07-22T08:13:13;3.28;;;1.40;;
56429;SDS011;42332;52.136;20.666;2023-07-22T08:15:39;5.05;;;1.80;;
56429;SDS011;42332;52.136;20.666;2023-07-22T08:18:04;4.70;;;1.63;;
56429;SDS011;42332;52.136;20.666;2023-07-22T08:20:29;6.47;;;1.83;;
56429;SDS011;42332;52.136;20.666;2023-07-22T08:22:55;4.55;;;1.77;;
56429;SDS011;42332;52.136;20.666;2023-07-22T08:25:21;5.57;;;1.88;;
56429;SDS011;42332;52.136;20.666;2023-07-22T08:27:46;5.93;;;2.35;;
56429;SDS011;42332;52.136;20.666;2023-07-22T08:30:12;5.05;;;1.63;;
56429;SDS011;42332;52.136;20.666;2023-07-22T08:32:37;5.35;;;1.55;;
56429;SDS011;42332;52.136;20.666;2023-07-22T08:35:02;5.40;;;2.20;;
56429;SDS011;42332;52.136;20.666;2023-07-22T08:37:28;5.35;;;1.80;;
56429;SDS011;42332;52.136;20.666;2023-07-22T08:39:53;8.80;;;2.05;;
56429;SDS011;42332;52.136;20.666;2023-07-22T08:42:19;5.60;;;2.05;;
56429;SDS011;42332;52.136;20.666;2023-07-22T08:44:48;4.70;;;2.25;;
56429;SDS011;42332;52.136;20.666;2023-07-22T08:47:15;11.07;;;2.20;;
56429;SDS011;42332;52.136;20.666;2023-07-22T08:49:45;3.67;;;1.95;;
56429;SDS011;42332;52.136;20.666;2023-07-22T08:52:13;5.43;;;2.50;;
56429;SDS011;42332;52.136;20.666;2023-07-22T08:54:39;5.28;;;2.25;;
56429;SDS011;42332;52.136;20.666;2023-07-22T08:57:05;6.05;;;2.30;;
56429;SDS011;42332;52.136;20.666;2023-07-22T08:59:31;8.80;;;2.75;;
56429;SDS011;42332;52.136;20.666;2023-07-22T09:01:57;5.60;;;1.67;;
56429;SDS011;42332;52.136;20.666;2023-07-22T09:04:23;7.30;;;2.10;;
56429;SDS011;42332;52.136;20.666;2023-07-22T09:06:48;6.47;;;2.30;;
56429;SDS011;42332;52.136;20.666;2023-07-22T09:09:13;7.18;;;2.10;;
56429;SDS011;42332;52.136;20.666;2023-07-22T09:11:40;4.95;;;1.98;;
56429;SDS011;42332;52.136;20.666;2023-07-22T09:14:05;7.38;;;2.22;;
56429;SDS011;42332;52.136;20.666;2023-07-22T09:16:31;4.88;;;2.20;;
56429;SDS011;42332;52.136;20.666;2023-07-22T09:18:57;4.10;;;1.70;;
56429;SDS011;42332;52.136;20.666;2023-07-22T09:21:23;6.45;;;1.90;;
56429;SDS011;42332;52.136;20.666;2023-07-22T09:23:48;5.40;;;2.00;;
56429;SDS011;42332;52.136;20.666;2023-07-22T09:26:14;4.63;;;2.08;;
56429;SDS011;42332;52.136;20.666;2023-07-22T09:28:56;3.88;;;1.27;;
56429;SDS011;42332;52.136;20.666;2023-07-22T09:31:23;4.57;;;1.70;;
56429;SDS011;42332;52.136;20.666;2023-07-22T09:33:49;7.03;;;1.38;;
56429;SDS011;42332;52.136;20.666;2023-07-22T09:36:15;4.95;;;2.00;;
56429;SDS011;42332;52.136;20.666;2023-07-22T09:38:41;4.03;;;1.38;;
56429;SDS011;42332;52.136;20.666;2023-07-22T09:41:06;7.07;;;1.60;;
56429;SDS011;42332;52.136;20.666;2023-07-22T09:43:35;4.70;;;1.48;;
56429;SDS011;42332;52.136;20.666;2023-07-22T09:46:08;3.78;;;1.60;;
56429;SDS011;42332;52.136;20.666;2023-07-22T09:48:43;4.32;;;1.50;;
56429;SDS011;42332;52.136;20.666;2023-07-22T09:51:15;3.22;;;1.40;;
56429;SDS011;42332;52.136;20.666;2023-07-22T09:53:47;3.20;;;1.20;;
56429;SDS011;42332;52.136;20.666;2023-07-22T09:56:24;4.15;;;1.55;;
56429;SDS011;42332;52.136;20.666;2023-07-22T09:58:50;2.70;;;1.20;;
56429;SDS011;42332;52.136;20.666;2023-07-22T10:01:16;6.00;;;1.30;;
56429;SDS011;42332;52.136;20.666;2023-07-22T10:03:44;3.83;;;1.48;;
56429;SDS011;42332;52.136;20.666;2023-07-22T10:06:11;4.55;;;1.50;;
56429;SDS011;42332;52.136;20.666;2023-07-22T10:08:38;7.05;;;1.92;;
56429;SDS011;42332;52.136;20.666;2023-07-22T10:11:05;5.93;;;1.60;;
56429;SDS011;42332;52.136;20.666;2023-07-22T10:13:31;8.30;;;1.40;;
56429;SDS011;42332;52.136;20.666;2023-07-22T10:15:57;4.28;;;1.35;;
56429;SDS011;42332;52.136;20.666;2023-07-22T10:18:23;3.42;;;1.40;;
56429;SDS011;42332;52.136;20.666;2023-07-22T10:20:48;4.03;;;1.27;;
56429;SDS011;42332;52.136;20.666;2023-07-22T10:23:14;3.10;;;1.30;;
56429;SDS011;42332;52.136;20.666;2023-07-22T10:25:40;3.47;;;1.20;;
56429;SDS011;42332;52.136;20.666;2023-07-22T10:28:07;3.00;;;1.10;;
56429;SDS011;42332;52.136;20.666;2023-07-22T10:30:33;2.70;;;1.23;;
56429;SDS011;42332;52.136;20.666;2023-07-22T10:32:58;3.08;;;1.30;;
56429;SDS011;42332;52.136;20.666;2023-07-22T10:37:55;4.30;;;1.60;;
56429;SDS011;42332;52.136;20.666;2023-07-22T10:42:59;4.20;;;1.52;;
56429;SDS011;42332;52.136;20.666;2023-07-22T10:53:27;3.65;;;1.50;;
56429;SDS011;42332;52.136;20.666;2023-07-22T11:06:36;4.45;;;1.30;;
56429;SDS011;42332;52.136;20.666;2023-07-22T11:09:03;6.90;;;1.50;;
56429;SDS011;42332;52.136;20.666;2023-07-22T11:11:35;5.40;;;1.40;;
56429;SDS011;42332;52.136;20.666;2023-07-22T11:14:14;3.45;;;1.40;;
56429;SDS011;42332;52.136;20.666;2023-07-22T11:16:45;5.45;;;1.70;;
56429;SDS011;42332;52.136;20.666;2023-07-22T11:19:15;3.33;;;1.52;;
56429;SDS011;42332;52.136;20.666;2023-07-22T11:21:42;5.25;;;1.63;;
56429;SDS011;42332;52.136;20.666;2023-07-22T11:24:08;4.28;;;1.60;;
56429;SDS011;42332;52.136;20.666;2023-07-22T11:26:34;5.80;;;1.67;;
56429;SDS011;42332;52.136;20.666;2023-07-22T11:29:00;5.18;;;1.80;;
56429;SDS011;42332;52.136;20.666;2023-07-22T11:34:02;3.17;;;1.38;;
56429;SDS011;42332;52.136;20.666;2023-07-22T11:36:27;3.28;;;1.55;;
56429;SDS011;42332;52.136;20.666;2023-07-22T11:38:53;4.00;;;1.52;;
56429;SDS011;42332;52.136;20.666;2023-07-22T11:41:20;3.38;;;1.38;;
56429;SDS011;42332;52.136;20.666;2023-07-22T11:43:46;3.33;;;1.33;;
56429;SDS011;42332;52.136;20.666;2023-07-22T11:46:11;6.53;;;1.50;;
56429;SDS011;42332;52.136;20.666;2023-07-22T11:48:36;3.35;;;1.40;;
56429;SDS011;42332;52.136;20.666;2023-07-22T11:51:02;3.88;;;1.35;;
56429;SDS011;42332;52.136;20.666;2023-07-22T11:53:27;4.25;;;1.60;;
56429;SDS011;42332;52.136;20.666;2023-07-22T11:55:56;4.55;;;1.30;;
56429;SDS011;42332;52.136;20.666;2023-07-22T11:58:24;3.17;;;1.27;;
56429;SDS011;42332;52.136;20.666;2023-07-22T12:01:03;7.30;;;1.50;;
56429;SDS011;42332;52.136;20.666;2023-07-22T12:03:31;6.53;;;1.45;;
56429;SDS011;42332;52.136;20.666;2023-07-22T12:06:00;6.30;;;1.50;;
56429;SDS011;42332;52.136;20.666;2023-07-22T12:08:27;3.30;;;1.45;;
56429;SDS011;42332;52.136;20.666;2023-07-22T12:10:57;3.58;;;1.50;;
56429;SDS011;42332;52.136;20.666;2023-07-22T12:13:23;3.13;;;1.35;;
56429;SDS011;42332;52.136;20.666;2023-07-22T12:16:04;5.32;;;1.17;;
56429;SDS011;42332;52.136;20.666;2023-07-22T12:18:45;4.05;;;1.40;;
56429;SDS011;42332;52.136;20.666;2023-07-22T12:21:12;3.67;;;1.33;;
56429;SDS011;42332;52.136;20.666;2023-07-22T12:23:38;6.05;;;1.45;;
56429;SDS011;42332;52.136;20.666;2023-07-22T12:26:04;3.30;;;1.40;;
56429;SDS011;42332;52.136;20.666;2023-07-22T12:28:30;3.88;;;1.38;;
56429;SDS011;42332;52.136;20.666;2023-07-22T12:30:55;4.22;;;1.40;;
56429;SDS011;42332;52.136;20.666;2023-07-22T12:33:22;3.95;;;1.40;;
56429;SDS011;42332;52.136;20.666;2023-07-22T12:35:50;5.10;;;1.25;;
56429;SDS011;42332;52.136;20.666;2023-07-22T12:38:18;5.05;;;1.58;;
56429;SDS011;42332;52.136;20.666;2023-07-22T12:40:43;3.58;;;1.50;;
56429;SDS011;42332;52.136;20.666;2023-07-22T12:43:08;3.50;;;1.42;;
56429;SDS011;42332;52.136;20.666;2023-07-22T12:45:34;4.47;;;1.92;;
56429;SDS011;42332;52.136;20.666;2023-07-22T12:47:59;10.93;;;2.35;;
56429;SDS011;42332;52.136;20.666;2023-07-22T12:50:24;7.28;;;2.20;;
56429;SDS011;42332;52.136;20.666;2023-07-22T12:52:50;3.33;;;1.35;;
56429;SDS011;42332;52.136;20.666;2023-07-22T12:55:15;5.75;;;1.40;;
56429;SDS011;42332;52.136;20.666;2023-07-22T12:57:41;2.35;;;1.02;;
56429;SDS011;42332;52.136;20.666;2023-07-22T13:00:06;6.05;;;1.48;;
56429;SDS011;42332;52.136;20.666;2023-07-22T13:02:34;3.65;;;1.58;;
56429;SDS011;42332;52.136;20.666;2023-07-22T13:05:00;5.78;;;1.65;;
56429;SDS011;42332;52.136;20.666;2023-07-22T13:07:26;3.35;;;1.38;;
56429;SDS011;42332;52.136;20.666;2023-07-22T13:09:51;5.43;;;1.60;;
56429;SDS011;42332;52.136;20.666;2023-07-22T13:12:18;6.60;;;1.90;;
56429;SDS011;42332;52.136;20.666;2023-07-22T13:14:44;3.17;;;1.33;;
56429;SDS011;42332;52.136;20.666;2023-07-22T13:17:10;4.32;;;1.77;;
56429;SDS011;42332;52.136;20.666;2023-07-22T13:19:36;3.78;;;1.70;;
56429;SDS011;42332;52.136;20.666;2023-07-22T13:22:01;3.22;;;1.25;;
56429;SDS011;42332;52.136;20.666;2023-07-22T13:24:26;4.50;;;1.95;;
56429;SDS011;42332;52.136;20.666;2023-07-22T13:26:52;7.20;;;1.60;;
56429;SDS011;42332;52.136;20.666;2023-07-22T13:29:17;3.72;;;1.40;;
56429;SDS011;42332;52.136;20.666;2023-07-22T13:31:42;7.47;;;1.67;;
56429;SDS011;42332;52.136;20.666;2023-07-22T13:34:07;4.90;;;2.13;;
56429;SDS011;42332;52.136;20.666;2023-07-22T13:36:33;3.55;;;1.60;;
56429;SDS011;42332;52.136;20.666;2023-07-22T13:38:58;4.03;;;1.73;;
56429;SDS011;42332;52.136;20.666;2023-07-22T13:41:23;17.02;;;1.30;;
56429;SDS011;42332;52.136;20.666;2023-07-22T13:43:49;3.75;;;1.90;;
56429;SDS011;42332;52.136;20.666;2023-07-22T13:46:14;14.10;;;1.67;;
56429;SDS011;42332;52.136;20.666;2023-07-22T13:48:39;7.88;;;1.90;;
56429;SDS011;42332;52.136;20.666;2023-07-22T13:51:05;3.65;;;1.50;;
56429;SDS011;42332;52.136;20.666;2023-07-22T13:53:30;5.03;;;1.92;;
56429;SDS011;42332;52.136;20.666;2023-07-22T13:55:55;4.88;;;1.98;;
56429;SDS011;42332;52.136;20.666;2023-07-22T13:58:21;3.60;;;1.38;;
56429;SDS011;42332;52.136;20.666;2023-07-22T14:00:46;3.78;;;1.60;;
56429;SDS011;42332;52.136;20.666;2023-07-22T14:03:11;8.30;;;1.40;;
56429;SDS011;42332;52.136;20.666;2023-07-22T14:05:37;2.67;;;1.35;;
56429;SDS011;42332;52.136;20.666;2023-07-22T14:08:02;5.32;;;1.58;;
56429;SDS011;42332;52.136;20.666;2023-07-22T14:10:27;5.35;;;1.52;;
56429;SDS011;42332;52.136;20.666;2023-07-22T14:12:53;4.63;;;1.63;;
56429;SDS011;42332;52.136;20.666;2023-07-22T14:15:18;3.60;;;1.55;;
56429;SDS011;42332;52.136;20.666;2023-07-22T14:17:43;3.53;;;1.35;;
56429;SDS011;42332;52.136;20.666;2023-07-22T14:20:09;5.72;;;1.40;;
56429;SDS011;42332;52.136;20.666;2023-07-22T14:22:36;3.28;;;1.30;;
56429;SDS011;42332;52.136;20.666;2023-07-22T14:25:02;5.93;;;1.70;;
56429;SDS011;42332;52.136;20.666;2023-07-22T14:27:27;5.18;;;1.70;;
56429;SDS011;42332;52.136;20.666;2023-07-22T14:29:52;5.60;;;1.77;;
56429;SDS011;42332;52.136;20.666;2023-07-22T14:32:18;3.47;;;1.45;;
56429;SDS011;42332;52.136;20.666;2023-07-22T14:34:43;3.53;;;1.45;;
56429;SDS011;42332;52.136;20.666;2023-07-22T14:37:08;4.03;;;1.38;;
56429;SDS011;42332;52.136;20.666;2023-07-22T14:39:34;7.68;;;1.33;;
56429;SDS011;42332;52.136;20.666;2023-07-22T14:41:59;8.05;;;1.60;;
56429;SDS011;42332;52.136;20.666;2023-07-22T14:44:25;5.15;;;1.65;;
56429;SDS011;42332;52.136;20.666;2023-07-22T14:46:50;3.40;;;1.48;;
56429;SDS011;42332;52.136;20.666;2023-07-22T14:49:15;4.40;;;1.65;;